createdAt,value
2022-10-01T00:00:14.836Z,173.53
2022-10-01T00:02:43.113Z,165.97
2022-10-01T00:05:11.814Z,160.57
2022-10-01T00:07:40.080Z,167.70
2022-10-01T00:10:10.973Z,165.77
2022-10-01T00:12:40.132Z,161.67
2022-10-01T00:15:13.364Z,161.17
2022-10-01T00:17:41.932Z,170.27
2022-10-01T00:20:14.744Z,163.23
2022-10-01T00:22:43.090Z,167.20
2022-10-01T00:25:12.062Z,165.67
2022-10-01T00:27:40.799Z,165.03
2022-10-01T00:30:11.562Z,158.93
2022-10-01T00:32:41.088Z,161.67
2022-10-01T00:35:10.199Z,161.77
2022-10-01T00:37:38.655Z,158.83
2022-10-01T00:40:08.414Z,159.40
2022-10-01T00:42:36.623Z,159.70
2022-10-01T00:45:05.286Z,157.93
2022-10-01T00:47:39.987Z,157.67
2022-10-01T00:50:16.350Z,159.27
2022-10-01T00:52:47.820Z,160.77
2022-10-01T00:55:20.341Z,156.60
2022-10-01T00:57:48.763Z,157.37
2022-10-01T01:00:16.968Z,169.30
2022-10-01T01:02:46.864Z,159.30
2022-10-01T01:05:15.480Z,159.40
2022-10-01T01:07:46.395Z,164.00
2022-10-01T01:10:20.247Z,158.40
2022-10-01T01:13:07.592Z,160.03
2022-10-01T01:15:42.283Z,166.67
2022-10-01T01:18:18.683Z,168.03
2022-10-01T01:21:22.395Z,157.10
2022-10-01T01:24:24.244Z,165.00
2022-10-01T01:27:03.497Z,173.67
2022-10-01T01:29:40.416Z,164.23
2022-10-01T01:32:14.988Z,162.63
2022-10-01T01:34:47.200Z,165.37
2022-10-01T01:37:20.316Z,158.60
2022-10-01T01:39:52.908Z,159.13
2022-10-01T01:42:28.147Z,171.37
2022-10-01T01:45:01.163Z,157.50
2022-10-01T01:47:32.876Z,155.30
2022-10-01T01:50:03.973Z,158.53
2022-10-01T01:52:33.723Z,159.67
2022-10-01T01:55:05.255Z,157.27
2022-10-01T01:57:33.488Z,162.03
2022-10-01T02:00:03.930Z,158.97
2022-10-01T02:02:39.223Z,162.77
2022-10-01T02:05:10.877Z,160.03
2022-10-01T02:08:00.496Z,159.27
2022-10-01T02:10:37.647Z,169.13
2022-10-01T02:13:18.619Z,165.67
2022-10-01T02:16:01.362Z,162.80
2022-10-01T02:18:37.177Z,162.53
2022-10-01T02:21:12.189Z,169.17
2022-10-01T02:23:44.996Z,168.43
2022-10-01T02:26:17.306Z,161.53
2022-10-01T02:28:48.739Z,166.93
2022-10-01T02:31:20.790Z,160.67
2022-10-01T02:33:52.703Z,168.50
2022-10-01T02:36:22.692Z,176.27
2022-10-01T02:38:54.201Z,182.20
2022-10-01T02:41:26.759Z,186.77
2022-10-01T02:43:58.913Z,195.80
2022-10-01T02:46:34.775Z,185.70
2022-10-01T02:49:04.334Z,202.77
2022-10-01T02:51:39.656Z,219.27
2022-10-01T02:54:13.988Z,240.20
2022-10-01T02:57:00.673Z,262.33
2022-10-01T02:59:28.807Z,301.93
2022-10-01T03:01:58.601Z,305.27
2022-10-01T03:04:26.947Z,277.80
2022-10-01T03:06:55.022Z,258.17
2022-10-01T03:09:23.252Z,270.97
2022-10-01T03:11:53.363Z,283.83
2022-10-01T03:14:21.594Z,301.77
2022-10-01T03:16:50.323Z,329.67
2022-10-01T03:19:19.874Z,392.53
2022-10-01T03:21:48.699Z,369.77
2022-10-01T03:24:16.880Z,442.27
2022-10-01T03:26:45.205Z,464.93
2022-10-01T03:29:13.363Z,514.57
2022-10-01T03:31:41.788Z,636.10
2022-10-01T03:34:10.054Z,582.43
2022-10-01T03:36:39.707Z,710.00
2022-10-01T03:39:07.897Z,750.77
2022-10-01T03:41:36.978Z,745.67
2022-10-01T03:44:05.877Z,759.67
2022-10-01T03:46:34.362Z,736.10
2022-10-01T03:49:02.772Z,719.83
2022-10-01T03:51:32.458Z,734.70
2022-10-01T03:54:02.652Z,741.53
2022-10-01T03:56:30.921Z,760.93
2022-10-01T03:58:59.117Z,701.97
2022-10-01T04:01:27.975Z,669.70
2022-10-01T04:03:56.253Z,621.87
2022-10-01T04:06:24.612Z,694.73
2022-10-01T04:08:52.848Z,652.83
2022-10-01T04:11:22.456Z,661.53
2022-10-01T04:13:52.090Z,702.77
2022-10-01T04:16:20.322Z,704.07
2022-10-01T04:18:49.676Z,657.80
2022-10-01T04:21:17.839Z,675.87
2022-10-01T04:23:46.262Z,657.30
2022-10-01T04:26:14.407Z,694.03
2022-10-01T04:28:45.130Z,711.50
2022-10-01T04:31:25.848Z,646.00
2022-10-01T04:33:55.510Z,728.30
2022-10-01T04:36:24.966Z,528.20
2022-10-01T04:38:56.690Z,577.47
2022-10-01T04:41:27.712Z,663.80
2022-10-01T04:43:59.321Z,676.57
2022-10-01T04:46:27.917Z,675.33
2022-10-01T04:48:56.081Z,648.83
2022-10-01T04:51:24.572Z,695.97
2022-10-01T04:53:52.974Z,690.17
2022-10-01T04:56:21.068Z,717.97
2022-10-01T04:58:49.307Z,700.23
2022-10-01T05:01:18.894Z,771.10
2022-10-01T05:03:47.718Z,726.67
2022-10-01T05:06:16.004Z,709.63
2022-10-01T05:08:44.128Z,747.73
2022-10-01T05:11:12.309Z,704.53
2022-10-01T05:13:40.404Z,723.73
2022-10-01T05:16:08.781Z,684.20
2022-10-01T05:18:39.201Z,755.70
2022-10-01T05:21:08.239Z,715.83
2022-10-01T05:23:36.337Z,698.13
2022-10-01T05:26:05.607Z,676.53
2022-10-01T05:28:34.044Z,702.90
2022-10-01T05:31:02.664Z,720.73
2022-10-01T05:33:31.966Z,696.97
2022-10-01T05:36:01.781Z,721.47
2022-10-01T05:38:30.066Z,726.60
2022-10-01T05:40:58.244Z,733.33
2022-10-01T05:43:27.006Z,788.93
2022-10-01T05:45:55.235Z,785.40
2022-10-01T05:48:23.439Z,738.10
2022-10-01T05:50:51.746Z,834.07
2022-10-01T05:53:22.355Z,771.67
2022-10-01T05:55:50.628Z,654.97
2022-10-01T05:58:18.811Z,496.57
2022-10-01T06:00:47.917Z,391.43
2022-10-01T06:03:16.225Z,374.53
2022-10-01T06:05:46.110Z,375.80
2022-10-01T06:08:15.677Z,360.03
2022-10-01T06:10:46.170Z,294.60
2022-10-01T06:13:17.848Z,284.07
2022-10-01T06:15:47.242Z,351.47
2022-10-01T06:18:15.509Z,245.90
2022-10-01T06:20:43.740Z,242.33
2022-10-01T06:23:13.540Z,228.27
2022-10-01T06:25:43.487Z,231.73
2022-10-01T06:28:14.687Z,204.20
2022-10-01T06:30:43.606Z,224.37
2022-10-01T06:33:13.709Z,197.80
2022-10-01T06:35:43.671Z,210.00
2022-10-01T06:38:12.253Z,216.63
2022-10-01T06:40:41.553Z,202.50
2022-10-01T06:43:10.679Z,201.57
2022-10-01T06:45:42.930Z,190.20
2022-10-01T06:48:15.113Z,191.23
2022-10-01T06:50:44.761Z,191.47
2022-10-01T06:53:13.660Z,201.77
2022-10-01T06:55:42.342Z,212.03
2022-10-01T06:58:14.745Z,182.77
2022-10-01T07:00:44.786Z,194.97
2022-10-01T07:03:16.065Z,205.13
2022-10-01T07:05:44.240Z,215.50
2022-10-01T07:08:13.007Z,208.70
2022-10-01T07:10:41.848Z,215.97
2022-10-01T07:13:12.067Z,209.03
2022-10-01T07:15:40.982Z,200.90
2022-10-01T07:18:10.838Z,185.17
2022-10-01T07:20:40.650Z,184.90
2022-10-01T07:23:13.299Z,178.83
2022-10-01T07:25:42.717Z,191.63
2022-10-01T07:28:16.440Z,173.63
2022-10-01T07:30:48.418Z,175.43
2022-10-01T07:33:20.756Z,206.87
2022-10-01T07:35:50.193Z,175.30
2022-10-01T07:38:18.394Z,176.90
2022-10-01T07:40:51.878Z,183.93
2022-10-01T07:43:20.012Z,170.90
2022-10-01T07:45:49.988Z,167.93
2022-10-01T07:48:19.233Z,175.10
2022-10-01T07:50:48.766Z,172.83
2022-10-01T07:53:17.634Z,183.73
2022-10-01T07:55:46.162Z,185.83
2022-10-01T07:58:14.470Z,183.60
2022-10-01T08:00:43.358Z,195.03
2022-10-01T08:03:12.670Z,186.87
2022-10-01T08:05:43.221Z,200.17
2022-10-01T08:08:12.702Z,211.40
2022-10-01T08:10:41.274Z,218.27
2022-10-01T08:13:14.218Z,219.10
2022-10-01T08:15:43.006Z,236.40
2022-10-01T08:18:12.317Z,268.87
2022-10-01T08:20:40.656Z,248.37
2022-10-01T08:23:10.589Z,285.53
2022-10-01T08:25:40.804Z,309.47
2022-10-01T08:28:10.007Z,304.93
2022-10-01T08:30:40.641Z,349.60
2022-10-01T08:33:11.953Z,358.53
2022-10-01T08:35:41.288Z,374.43
2022-10-01T08:38:09.820Z,389.60
2022-10-01T08:40:49.080Z,392.77
2022-10-01T08:43:31.798Z,454.07
2022-10-01T08:46:04.025Z,499.20
2022-10-01T08:48:56.064Z,443.13
2022-10-01T08:51:30.138Z,515.17
2022-10-01T08:54:09.012Z,501.97
2022-10-01T08:56:46.310Z,447.93
2022-10-01T08:59:27.993Z,441.50
2022-10-01T09:01:56.235Z,403.97
2022-10-01T09:04:25.114Z,307.63
2022-10-01T09:07:00.884Z,427.07
2022-10-01T09:09:48.794Z,535.27
2022-10-01T09:12:32.256Z,638.73
2022-10-01T09:15:16.186Z,634.10
2022-10-01T09:17:58.168Z,668.80
2022-10-01T09:20:28.093Z,547.40
2022-10-01T09:23:09.484Z,475.20
2022-10-01T09:25:39.966Z,583.47
2022-10-01T09:28:15.635Z,488.73
2022-10-01T09:30:48.671Z,605.07
2022-10-01T09:33:20.149Z,740.73
2022-10-01T09:35:52.732Z,706.63
2022-10-01T09:38:26.871Z,830.53
2022-10-01T09:40:56.635Z,671.57
2022-10-01T09:43:29.853Z,682.40
2022-10-01T09:45:58.598Z,760.43
2022-10-01T09:48:33.947Z,871.60
2022-10-01T09:51:09.380Z,1008.27
2022-10-01T09:53:42.321Z,1130.77
2022-10-01T09:56:15.547Z,2266.67
2022-10-01T09:58:51.577Z,2266.67
2022-10-01T10:01:27.981Z,2266.67
2022-10-01T10:03:58.319Z,2266.67
2022-10-01T10:06:29.450Z,2266.67
2022-10-01T10:08:59.268Z,1732.77
2022-10-01T10:11:29.597Z,929.67
2022-10-01T10:14:03.617Z,1307.43
2022-10-01T10:16:35.665Z,1794.03
2022-10-01T10:19:10.250Z,1389.43
2022-10-01T10:21:38.923Z,1538.57
2022-10-01T10:24:22.902Z,1591.30
2022-10-01T10:26:55.447Z,1402.70
2022-10-01T10:29:30.438Z,1412.93
2022-10-01T10:32:00.566Z,1555.50
2022-10-01T10:34:33.919Z,1619.67
2022-10-01T10:37:06.825Z,1474.07
2022-10-01T10:39:37.595Z,1333.53
2022-10-01T10:42:07.573Z,1077.97
2022-10-01T10:44:39.912Z,1184.83
2022-10-01T10:47:11.796Z,1203.53
2022-10-01T10:49:46.717Z,1064.20
2022-10-01T10:52:26.047Z,725.03
2022-10-01T10:54:54.425Z,555.87
2022-10-01T10:57:27.756Z,426.53
2022-10-01T10:59:59.151Z,356.07
2022-10-01T11:02:30.043Z,217.87
2022-10-01T11:05:01.435Z,232.27
2022-10-01T11:07:30.880Z,261.17
2022-10-01T11:10:16.412Z,257.20
2022-10-01T11:13:06.608Z,271.83
2022-10-01T11:15:57.319Z,235.27
2022-10-01T11:18:48.374Z,244.20
2022-10-01T11:21:32.533Z,257.37
2022-10-01T11:24:14.521Z,253.03
2022-10-01T11:26:53.679Z,243.23
2022-10-01T11:29:39.290Z,259.40
2022-10-01T11:32:20.333Z,277.30
2022-10-01T11:35:09.095Z,272.67
2022-10-01T11:37:50.049Z,267.77
2022-10-01T11:40:25.500Z,301.23
2022-10-01T11:43:01.916Z,341.73
2022-10-01T11:45:33.663Z,354.33
2022-10-01T11:48:07.603Z,350.30
2022-10-01T11:50:39.464Z,346.40
2022-10-01T11:53:14.527Z,343.17
2022-10-01T11:56:09.735Z,350.23
2022-10-01T11:58:54.481Z,280.33
2022-10-01T12:01:34.487Z,296.90
2022-10-01T12:04:18.384Z,259.27
2022-10-01T12:06:55.285Z,282.63
2022-10-01T12:09:32.426Z,298.00
2022-10-01T12:12:05.933Z,310.53
2022-10-01T12:14:41.292Z,349.23
2022-10-01T12:17:18.347Z,299.30
2022-10-01T12:19:52.645Z,314.97
2022-10-01T12:22:28.715Z,343.97
2022-10-01T12:24:57.183Z,320.50
2022-10-01T12:27:36.374Z,304.90
2022-10-01T12:30:09.223Z,280.43
2022-10-01T12:32:48.642Z,281.67
2022-10-01T12:35:35.738Z,227.90
2022-10-01T12:38:18.360Z,274.00
2022-10-01T12:40:51.310Z,266.53
2022-10-01T12:43:37.552Z,270.83
2022-10-01T12:46:18.378Z,239.50
2022-10-01T12:49:00.778Z,255.90
2022-10-01T12:51:39.444Z,241.10
2022-10-01T12:54:22.078Z,259.57
2022-10-01T12:57:00.232Z,286.97
2022-10-01T12:59:45.660Z,271.20
2022-10-01T13:02:31.405Z,251.07
2022-10-01T13:05:19.926Z,267.53
2022-10-01T13:08:03.843Z,231.47
2022-10-01T13:10:48.748Z,209.87
2022-10-01T13:13:22.504Z,196.03
2022-10-01T13:15:59.664Z,198.47
2022-10-01T13:18:46.535Z,207.87
2022-10-01T13:21:23.920Z,190.97
2022-10-01T13:23:59.944Z,231.83
2022-10-01T13:26:33.947Z,308.10
2022-10-01T13:29:15.334Z,227.30
2022-10-01T13:31:56.769Z,247.23
2022-10-01T13:34:36.685Z,237.37
2022-10-01T13:37:16.410Z,228.93
2022-10-01T13:39:47.126Z,237.47
2022-10-01T13:42:23.008Z,241.90
2022-10-01T13:44:56.452Z,246.10
2022-10-01T13:47:25.711Z,279.53
2022-10-01T13:50:00.575Z,279.80
2022-10-01T13:52:28.935Z,268.70
2022-10-01T13:55:00.701Z,282.47
2022-10-01T13:57:34.152Z,250.00
2022-10-01T14:00:20.310Z,253.00
2022-10-01T14:03:01.969Z,245.63
2022-10-01T14:05:35.879Z,226.53
2022-10-01T14:08:13.420Z,251.77
2022-10-01T14:11:06.717Z,227.33
2022-10-01T14:14:01.940Z,232.93
2022-10-01T14:16:36.557Z,242.40
2022-10-01T14:19:05.608Z,241.37
2022-10-01T14:21:47.011Z,263.03
2022-10-01T14:24:26.242Z,238.13
2022-10-01T14:27:00.286Z,240.90
2022-10-01T14:29:50.420Z,245.90
2022-10-01T14:32:29.731Z,193.67
2022-10-01T14:35:12.243Z,213.20
2022-10-01T14:37:41.333Z,183.43
2022-10-01T14:40:17.874Z,208.30
2022-10-01T14:42:59.265Z,212.57
2022-10-01T14:45:27.706Z,196.67
2022-10-01T14:48:03.149Z,193.47
2022-10-01T14:50:34.728Z,215.43
2022-10-01T14:53:02.966Z,200.23
2022-10-01T14:55:32.377Z,226.93
2022-10-01T14:58:02.227Z,211.33
2022-10-01T15:00:32.197Z,221.07
2022-10-01T15:03:10.163Z,234.27
2022-10-01T15:05:38.583Z,264.73
2022-10-01T15:08:13.362Z,247.17
2022-10-01T15:10:45.256Z,225.37
2022-10-01T15:13:22.635Z,278.70
2022-10-01T15:15:51.472Z,261.60
2022-10-01T15:18:19.972Z,261.10
2022-10-01T15:20:55.391Z,292.93
2022-10-01T15:23:25.317Z,254.87
2022-10-01T15:25:56.125Z,257.17
2022-10-01T15:28:31.590Z,236.87
2022-10-01T15:31:01.587Z,258.67
2022-10-01T15:33:32.068Z,245.47
2022-10-01T15:36:02.896Z,261.63
2022-10-01T15:38:33.429Z,273.37
2022-10-01T15:41:26.753Z,272.97
2022-10-01T15:43:54.367Z,242.67
2022-10-01T15:46:31.334Z,260.60
2022-10-01T15:49:20.194Z,274.37
2022-10-01T15:52:14.706Z,216.87
2022-10-01T15:54:45.748Z,225.97
2022-10-01T15:57:19.412Z,234.70
2022-10-01T15:59:52.474Z,236.43
2022-10-01T16:02:28.907Z,243.23
2022-10-01T16:05:05.491Z,232.87
2022-10-01T16:07:34.752Z,234.83
2022-10-01T16:10:15.448Z,244.90
2022-10-01T16:12:43.580Z,217.00
2022-10-01T16:15:27.108Z,233.23
2022-10-01T16:17:57.375Z,215.90
2022-10-01T16:20:36.455Z,227.40
2022-10-01T16:23:33.696Z,210.43
2022-10-01T16:26:02.169Z,180.83
2022-10-01T16:28:33.425Z,192.23
2022-10-01T16:31:05.054Z,194.23
2022-10-01T16:33:33.264Z,212.30
2022-10-01T16:36:10.786Z,215.70
2022-10-01T16:38:39.083Z,210.47
2022-10-01T16:41:07.184Z,223.43
2022-10-01T16:43:35.357Z,220.60
2022-10-01T16:46:05.282Z,219.07
2022-10-01T16:48:33.588Z,201.83
2022-10-01T16:51:01.781Z,226.37
2022-10-01T16:53:33.229Z,236.50
2022-10-01T16:56:01.940Z,234.50
2022-10-01T16:58:30.596Z,224.37
2022-10-01T17:00:58.863Z,239.50
2022-10-01T17:03:28.418Z,255.77
2022-10-01T17:05:56.844Z,239.37
2022-10-01T17:08:24.999Z,228.80
2022-10-01T17:10:59.090Z,239.33
2022-10-01T17:13:28.897Z,237.43
2022-10-01T17:15:57.163Z,254.07
2022-10-01T17:18:26.178Z,234.43
2022-10-01T17:20:56.649Z,222.97
2022-10-01T17:23:25.295Z,220.57
2022-10-01T17:25:54.251Z,219.13
2022-10-01T17:28:23.927Z,225.70
2022-10-01T17:30:52.423Z,213.43
2022-10-01T17:33:21.727Z,218.93
2022-10-01T17:35:54.535Z,222.53
2022-10-01T17:38:24.648Z,213.50
2022-10-01T17:40:56.624Z,231.67
2022-10-01T17:43:25.281Z,206.37
2022-10-01T17:45:57.166Z,169.40
2022-10-01T17:48:26.166Z,174.57
2022-10-01T17:51:03.629Z,161.20
2022-10-01T17:53:39.685Z,166.73
2022-10-01T17:56:11.611Z,169.70
2022-10-01T17:58:44.783Z,207.10
2022-10-01T18:01:17.290Z,244.97
2022-10-01T18:03:46.056Z,288.63
2022-10-01T18:06:17.073Z,319.77
2022-10-01T18:08:55.945Z,330.30
2022-10-01T18:11:25.745Z,353.77
2022-10-01T18:13:54.099Z,412.67
2022-10-01T18:16:23.195Z,374.30
2022-10-01T18:21:45.024Z,457.33
2022-10-01T18:24:16.190Z,381.50
2022-10-01T18:26:45.733Z,530.10
2022-10-01T18:29:19.277Z,625.27
2022-10-01T18:31:53.559Z,883.03
2022-10-01T18:34:30.008Z,589.47
2022-10-01T18:37:05.412Z,664.17
2022-10-01T18:39:39.685Z,588.27
2022-10-01T18:42:15.907Z,682.73
2022-10-01T18:44:44.154Z,699.20
2022-10-01T18:47:23.890Z,667.70
2022-10-01T18:50:04.497Z,540.53
2022-10-01T18:52:46.815Z,499.23
2022-10-01T18:55:33.331Z,434.10
2022-10-01T18:58:20.089Z,386.97
2022-10-01T19:00:57.676Z,363.70
2022-10-01T19:04:00.104Z,329.50
2022-10-01T19:06:54.423Z,387.40
2022-10-01T19:09:37.662Z,414.00
2022-10-01T19:12:24.363Z,386.03
2022-10-01T19:15:02.617Z,368.67
2022-10-01T19:17:48.376Z,357.90
2022-10-01T19:20:30.174Z,366.20
2022-10-01T19:23:10.460Z,341.07
2022-10-01T19:25:44.328Z,294.83
2022-10-01T19:28:28.972Z,309.27
2022-10-01T19:31:07.440Z,319.73
2022-10-01T19:33:44.103Z,288.07
2022-10-01T19:36:19.942Z,301.23
2022-10-01T19:38:51.116Z,303.37
2022-10-01T19:41:25.286Z,331.67
2022-10-01T19:44:00.872Z,352.63
2022-10-01T19:46:35.003Z,352.33
2022-10-01T19:49:12.810Z,459.27
2022-10-01T19:51:46.983Z,328.43
2022-10-01T19:54:17.423Z,333.90
2022-10-01T19:56:48.756Z,278.50
2022-10-01T19:59:20.722Z,277.83
2022-10-01T20:01:55.187Z,242.97
2022-10-01T20:04:31.733Z,230.27
2022-10-01T20:07:05.855Z,238.50
2022-10-01T20:09:43.594Z,254.63
2022-10-01T20:12:22.405Z,242.87
2022-10-01T20:15:09.774Z,249.03
2022-10-01T20:17:51.216Z,237.07
2022-10-01T20:20:27.286Z,219.67
2022-10-01T20:23:11.419Z,200.10
2022-10-01T20:25:46.653Z,199.63
2022-10-01T20:28:24.972Z,192.50
2022-10-01T20:31:06.176Z,203.20
2022-10-01T20:33:43.786Z,208.90
2022-10-01T20:36:19.758Z,188.77
2022-10-01T20:38:54.456Z,178.40
2022-10-01T20:41:24.631Z,191.10
2022-10-01T20:43:56.936Z,176.00
2022-10-01T20:46:33.310Z,175.37
2022-10-01T20:49:05.366Z,182.80
2022-10-01T20:51:40.200Z,185.00
2022-10-01T20:54:12.226Z,184.20
2022-10-01T20:56:44.880Z,172.97
2022-10-01T20:59:19.234Z,192.20
2022-10-01T21:02:02.363Z,186.67
2022-10-01T21:04:35.184Z,174.67
2022-10-01T21:07:13.274Z,192.43
2022-10-01T21:09:47.220Z,171.03
2022-10-01T21:12:22.589Z,204.20
2022-10-01T21:14:53.986Z,237.17
2022-10-01T21:17:40.729Z,289.70
2022-10-01T21:20:42.744Z,330.03
2022-10-01T21:23:23.755Z,374.53
2022-10-01T21:26:05.025Z,652.33
2022-10-01T21:28:57.252Z,541.17
2022-10-01T21:31:39.298Z,484.20
2022-10-01T21:34:14.327Z,736.63
2022-10-01T21:36:56.750Z,797.70
2022-10-01T21:39:32.765Z,882.13
2022-10-01T21:42:14.959Z,929.03
2022-10-01T21:45:08.076Z,1037.53
2022-10-01T21:48:13.458Z,1086.30
2022-10-01T21:50:51.705Z,1174.77
2022-10-01T21:53:52.450Z,791.77
2022-10-01T21:56:45.424Z,676.77
2022-10-01T21:59:26.951Z,1717.53
2022-10-01T22:02:05.784Z,1779.80
2022-10-01T22:04:41.367Z,493.87
2022-10-01T22:07:22.800Z,1117.40
2022-10-01T22:10:04.124Z,1454.10
2022-10-01T22:12:37.162Z,1686.77
2022-10-01T22:15:21.089Z,1829.70
2022-10-01T22:17:52.045Z,1657.67
2022-10-01T22:20:22.799Z,1505.57
2022-10-01T22:22:55.910Z,1601.97
2022-10-01T22:25:24.048Z,1511.67
2022-10-01T22:27:58.751Z,1409.20
2022-10-01T22:30:28.796Z,1115.33
2022-10-01T22:33:02.285Z,729.90
2022-10-01T22:35:34.996Z,509.77
2022-10-01T22:38:12.485Z,365.40
2022-10-01T22:40:46.224Z,316.37
2022-10-01T22:43:15.460Z,203.80
2022-10-01T22:45:59.253Z,221.23
2022-10-01T22:48:44.402Z,209.13
2022-10-01T22:51:27.170Z,204.23
2022-10-01T22:54:14.759Z,200.93
2022-10-01T22:56:51.922Z,194.30
2022-10-01T22:59:27.688Z,193.10
2022-10-01T23:02:05.223Z,168.70
2022-10-01T23:04:41.949Z,188.30
2022-10-01T23:07:21.025Z,188.20
2022-10-01T23:10:00.309Z,184.27
2022-10-01T23:12:39.328Z,209.93
2022-10-01T23:15:19.685Z,225.87
2022-10-01T23:17:58.850Z,248.73
2022-10-01T23:20:32.788Z,283.77
2022-10-01T23:23:25.384Z,324.27
2022-10-01T23:26:08.384Z,392.43
2022-10-01T23:28:49.656Z,493.23
2022-10-01T23:31:27.275Z,726.03
2022-10-01T23:34:05.874Z,853.33
2022-10-01T23:36:42.317Z,691.97
2022-10-01T23:39:31.484Z,718.07
2022-10-01T23:42:09.831Z,879.00
2022-10-01T23:44:47.779Z,1007.77
2022-10-01T23:47:20.521Z,1043.37
2022-10-01T23:49:54.961Z,1061.97
2022-10-01T23:52:31.477Z,1052.67
2022-10-01T23:55:17.997Z,1141.07
2022-10-01T23:57:49.409Z,1182.40
